Hlavní strana
METAR-TAF:

METAR-TAF

Letiště :

Hagåtña, Guam, Spojené státy americké

zeměpisná šířka: 13-29N, zeměpisná délka: 144-48E, výška: 91 m

Aktuální stav počasí

Zpráva byla vytvořena před 43 minutami, v 14:54 UTC
Východní vítr 8 kt
Teplota 28°C
Vlhkost vzduchu 79%
Tlak 1013 hPa
Viditelnost: 16.1 km
Skoro jasno ve výšce 1900 ft

METAR: PGUM 221454Z 09008KT 10SM FEW019 28/24 A2990 RMK AO2 SLP117 T02830239 58002

Čas: 01:37 (15:37 UTC)

Předpověď počasí

Zpráva byla vytvořena před 4 hodinami a 17 minutami, v 11:20 UTC
Předpověď platná od 22 v 12 UTC do 23 v 18 UTC
Východní vítr 8 kt
Viditelnost: 10 km
Skoro jasno ve výšce 2200 ft
Polojasno ve výšce 3000 ft
přeháňky v blízkosti,

TAF: PGUM 221120Z 2212/2318 08008KT P6SM VCSH FEW022 SCT030

Stav a předpovědi počasí z více než 4 000 letišť (zprávy METAR a TAF).

Červené a žluté tečky na mapě představují dostupné meteorologické stanice.

Když kurzor umístíte na tečku, zobrazí se název stanice.

Pak kliknutím zobrazíte stav a předpověď počasí.

Chcete-li změnit mapu, kliknutím na zelené tlačítko se znaménkem +mapu přiblížíte, kliknutím na zelené tlačítko se znaménkem – mapu oddálíte a kliknutím na zelené šipky přejdete na sousední mapy.


METAR-TAF: